Time;durP1;ratioP1;P1;durP2;ratioP2;P2;SDS_P1;SDS_P2;PMS_P1;PMS_P2;Temp;Humidity;BMP_temperature;BMP_pressure;BME280_temperature;BME280_humidity;BME280_pressure;Samples;Min_cycle;Max_cycle;Signal;HPM_P1;HPM_P2
2023/03/22 00:02:12;;;;;;;44.55;29.50;;;9.80;99.90;;;;;;4915490;29;20501;-80
2023/03/22 00:04:41;;;;;;;39.67;26.40;;;9.70;99.90;;;;;;4912567;29;20251;-79
2023/03/22 00:07:08;;;;;;;44.67;28.40;;;9.90;99.90;;;;;;4912835;29;20212;-79
2023/03/22 00:09:35;;;;;;;39.40;24.55;;;9.70;99.90;;;;;;4914528;29;20217;-80
2023/03/22 00:12:03;;;;;;;42.55;30.30;;;9.70;99.90;;;;;;4908281;29;20280;-79
2023/03/22 00:14:30;;;;;;;44.97;26.42;;;9.70;99.90;;;;;;4910940;29;20234;-79
2023/03/22 00:16:56;;;;;;;49.78;30.17;;;9.70;99.90;;;;;;4907874;29;20232;-80
2023/03/22 00:19:25;;;;;;;42.70;26.63;;;9.80;99.90;;;;;;4921282;29;20213;-78
2023/03/22 00:21:51;;;;;;;36.50;23.55;;;9.60;99.90;;;;;;4906367;29;20553;-81
2023/03/22 00:24:20;;;;;;;39.50;26.65;;;9.60;99.90;;;;;;4910513;29;20424;-81
2023/03/22 00:26:46;;;;;;;40.70;26.38;;;9.60;99.90;;;;;;4914248;29;20212;-78
2023/03/22 00:29:14;;;;;;;42.17;27.27;;;9.60;99.90;;;;;;4909462;29;20209;-81
2023/03/22 00:31:41;;;;;;;45.22;27.90;;;9.60;99.90;;;;;;4907909;29;20264;-81
2023/03/22 00:34:09;;;;;;;44.80;27.95;;;9.50;99.90;;;;;;4915137;29;20236;-78
2023/03/22 00:36:37;;;;;;;39.25;24.13;;;9.50;99.90;;;;;;4907828;29;20240;-81
2023/03/22 00:39:03;;;;;;;46.05;27.58;;;9.50;99.90;;;;;;4915620;29;20393;-80
2023/03/22 00:41:30;;;;;;;44.72;28.00;;;9.60;99.90;;;;;;4917365;29;20410;-81
2023/03/22 00:43:57;;;;;;;44.83;29.38;;;9.40;99.90;;;;;;4921366;29;20224;-80
2023/03/22 00:46:25;;;;;;;43.55;29.30;;;9.50;99.90;;;;;;4914250;29;20256;-80
2023/03/22 00:48:52;;;;;;;43.28;27.23;;;9.50;99.90;;;;;;4919018;29;20208;-82
2023/03/22 00:51:19;;;;;;;41.80;27.48;;;9.50;99.90;;;;;;4902287;29;20216;-78
2023/03/22 00:53:51;;;;;;;32.03;24.77;;;9.50;99.90;;;;;;4905587;29;20303;-78
2023/03/22 00:56:18;;;;;;;38.78;26.50;;;9.60;99.90;;;;;;4903937;29;20312;-78
2023/03/22 00:58:45;;;;;;;36.65;25.20;;;9.70;99.90;;;;;;4932213;29;20204;-77
2023/03/22 01:01:12;;;;;;;36.17;24.67;;;9.80;99.90;;;;;;4931179;29;20200;-82
2023/03/22 01:03:40;;;;;;;43.67;24.02;;;9.70;99.90;;;;;;4938339;29;20223;-81
2023/03/22 01:06:08;;;;;;;38.63;24.65;;;9.70;99.90;;;;;;4935305;29;20212;-80
2023/03/22 01:08:37;;;;;;;37.78;25.02;;;9.60;99.90;;;;;;4916484;29;20211;-80
2023/03/22 01:11:06;;;;;;;35.70;24.73;;;9.70;99.90;;;;;;4925558;29;20288;-78
2023/03/22 01:13:36;;;;;;;35.03;24.40;;;9.70;99.90;;;;;;4925002;29;20251;-81
2023/03/22 01:16:04;;;;;;;34.83;23.10;;;9.60;99.90;;;;;;4921002;29;20255;-78
2023/03/22 01:18:32;;;;;;;38.90;26.42;;;9.60;99.90;;;;;;4913238;29;20236;-78
2023/03/22 01:21:01;;;;;;;37.85;25.25;;;9.60;99.90;;;;;;4922383;29;20215;-78
2023/03/22 01:23:27;;;;;;;35.05;24.25;;;9.70;99.90;;;;;;4919657;29;20216;-80
2023/03/22 01:25:54;;;;;;;40.35;24.55;;;9.80;99.90;;;;;;4913013;29;20212;-79
2023/03/22 01:28:21;;;;;;;30.05;22.48;;;9.80;99.90;;;;;;4910956;29;20288;-80
2023/03/22 01:30:53;;;;;;;39.72;24.08;;;9.80;99.90;;;;;;4919854;29;20243;-80
2023/03/22 01:33:21;;;;;;;39.30;25.75;;;9.90;99.90;;;;;;4920461;29;20213;-78
2023/03/22 01:35:48;;;;;;;40.22;26.02;;;9.80;99.90;;;;;;4915611;29;20268;-80
2023/03/22 01:38:15;;;;;;;47.85;28.75;;;9.70;99.90;;;;;;4911274;29;20380;-78
2023/03/22 01:40:41;;;;;;;33.47;24.13;;;9.70;99.90;;;;;;4915699;29;20217;-78
2023/03/22 01:43:16;;;;;;;32.63;22.70;;;9.90;99.90;;;;;;4911377;29;20390;-78
2023/03/22 01:45:46;;;;;;;37.17;24.70;;;10.10;99.90;;;;;;4923572;29;20215;-79
2023/03/22 01:48:44;;;;;;;38.28;25.27;;;10.00;99.90;;;;;;4917897;29;20253;-78
2023/03/22 01:51:17;;;;;;;37.85;24.75;;;10.00;99.90;;;;;;4915371;29;20593;-78
2023/03/22 01:54:29;;;;;;;40.60;25.25;;;9.80;99.90;;;;;;4922088;29;20220;-80
2023/03/22 01:56:57;;;;;;;33.75;22.92;;;9.80;99.90;;;;;;4886220;29;20228;-79
2023/03/22 01:59:25;;;;;;;38.17;24.85;;;9.70;99.90;;;;;;4916884;29;20212;-80
2023/03/22 02:01:53;;;;;;;38.80;23.77;;;9.70;99.90;;;;;;4922091;29;20504;-81
2023/03/22 02:04:23;;;;;;;33.63;24.00;;;9.80;99.90;;;;;;4909348;29;20238;-81
2023/03/22 02:06:54;;;;;;;36.03;23.73;;;9.80;99.90;;;;;;4920667;29;20226;-81
2023/03/22 02:09:21;;;;;;;38.83;24.98;;;9.90;99.90;;;;;;4920965;29;20273;-80
2023/03/22 02:11:58;;;;;;;36.53;22.00;;;9.90;99.90;;;;;;4920314;29;20208;-80
2023/03/22 02:14:40;;;;;;;32.72;22.15;;;9.90;99.90;;;;;;4908678;29;20204;-80
2023/03/22 02:17:41;;;;;;;36.85;24.90;;;9.90;99.90;;;;;;4912723;29;20250;-78
2023/03/22 02:20:14;;;;;;;36.05;25.45;;;9.90;99.90;;;;;;4916597;29;20219;-79
2023/03/22 02:23:13;;;;;;;40.30;26.15;;;9.80;99.90;;;;;;4922143;29;20200;-79
2023/03/22 02:25:58;;;;;;;40.50;26.40;;;9.90;99.90;;;;;;4911211;29;20401;-80
2023/03/22 02:28:44;;;;;;;35.45;23.02;;;9.80;99.90;;;;;;4918959;29;20212;-80
2023/03/22 02:31:38;;;;;;;39.22;25.10;;;9.90;99.90;;;;;;4910939;29;20525;-78
2023/03/22 02:34:17;;;;;;;36.78;24.45;;;9.80;99.90;;;;;;4925971;29;20515;-81
2023/03/22 02:36:56;;;;;;;38.17;25.25;;;9.80;99.90;;;;;;4920289;29;20216;-80
2023/03/22 02:40:11;;;;;;;37.88;26.02;;;9.90;99.90;;;;;;4923434;29;20199;-79
2023/03/22 02:42:42;;;;;;;40.00;25.50;;;9.80;99.90;;;;;;4883951;29;20217;-80
2023/03/22 02:45:21;;;;;;;29.90;22.85;;;10.10;99.90;;;;;;4921551;29;20213;-81
2023/03/22 02:47:57;;;;;;;39.97;24.05;;;9.80;99.90;;;;;;4919058;29;20219;-79
2023/03/22 02:50:36;;;;;;;32.15;24.17;;;9.90;99.90;;;;;;4919112;29;20213;-80
2023/03/22 02:53:33;;;;;;;39.20;23.45;;;10.00;99.90;;;;;;4919072;29;20224;-80
2023/03/22 02:56:22;;;;;;;42.97;25.67;;;9.90;99.90;;;;;;4913012;29;20239;-79
2023/03/22 02:58:52;;;;;;;38.95;24.77;;;9.80;99.90;;;;;;4919750;29;20509;-79
2023/03/22 03:01:34;;;;;;;45.85;28.65;;;9.80;99.90;;;;;;4910819;29;20209;-79
2023/03/22 03:04:08;;;;;;;37.20;26.05;;;9.80;99.90;;;;;;4912382;29;20215;-79
2023/03/22 03:06:40;;;;;;;37.58;23.85;;;9.90;99.90;;;;;;4910421;29;20595;-81
2023/03/22 03:09:12;;;;;;;46.85;27.63;;;9.80;99.90;;;;;;4913880;29;20207;-80
2023/03/22 03:11:39;;;;;;;39.17;25.70;;;9.90;99.90;;;;;;4926568;29;20263;-81
2023/03/22 03:14:06;;;;;;;37.00;25.33;;;9.90;99.90;;;;;;4934138;29;20185;-79
2023/03/22 03:16:35;;;;;;;34.25;24.30;;;9.90;99.90;;;;;;4927237;29;20221;-79
2023/03/22 03:19:32;;;;;;;38.53;25.58;;;9.90;99.90;;;;;;4930194;29;20442;-77
2023/03/22 03:22:02;;;;;;;34.63;25.35;;;9.90;99.90;;;;;;4899690;29;20204;-79
2023/03/22 03:24:44;;;;;;;33.83;23.67;;;10.00;99.90;;;;;;4907593;29;20256;-78
2023/03/22 03:27:48;;;;;;;39.55;25.75;;;10.10;99.90;;;;;;4915450;29;20208;-79
2023/03/22 03:30:48;;;;;;;35.05;22.83;;;10.20;99.90;;;;;;4915959;29;20212;-78
2023/03/22 03:33:19;;;;;;;33.17;22.80;;;10.60;99.90;;;;;;4910438;29;20253;-79
2023/03/22 03:35:52;;;;;;;37.58;23.73;;;11.00;99.90;;;;;;4914796;29;20256;-79
2023/03/22 03:38:25;;;;;;;40.88;23.50;;;10.90;99.90;;;;;;4910066;29;20213;-79
2023/03/22 03:41:00;;;;;;;34.25;23.60;;;10.90;99.90;;;;;;4913607;29;20207;-80
2023/03/22 03:43:27;;;;;;;33.47;20.35;;;10.90;99.90;;;;;;4911631;29;20520;-80
2023/03/22 03:45:55;;;;;;;34.08;24.25;;;11.00;99.90;;;;;;4909281;29;20516;-80
2023/03/22 03:48:30;;;;;;;35.85;22.08;;;10.70;99.90;;;;;;4911690;29;20212;-79
2023/03/22 03:51:00;;;;;;;34.97;23.00;;;10.50;99.90;;;;;;4908501;29;20210;-79
2023/03/22 03:53:27;;;;;;;35.08;24.08;;;10.60;99.90;;;;;;4920459;29;20224;-79
2023/03/22 03:55:54;;;;;;;35.95;23.35;;;10.80;99.90;;;;;;4921569;29;20232;-78
2023/03/22 03:58:21;;;;;;;32.90;22.48;;;11.00;99.90;;;;;;4911745;29;20525;-79
2023/03/22 04:00:48;;;;;;;32.65;21.42;;;11.00;99.90;;;;;;4916317;29;20786;-78
2023/03/22 04:03:16;;;;;;;36.03;23.55;;;10.80;99.90;;;;;;4912684;29;20220;-79
2023/03/22 04:05:43;;;;;;;34.13;21.77;;;11.00;99.90;;;;;;4908275;29;20235;-80
2023/03/22 04:08:10;;;;;;;37.35;22.13;;;10.80;99.90;;;;;;4913582;29;20520;-79
2023/03/22 04:10:37;;;;;;;35.75;25.15;;;11.00;99.90;;;;;;4921380;29;20236;-79
2023/03/22 04:13:05;;;;;;;38.00;25.80;;;11.20;99.90;;;;;;4908434;29;20212;-80
2023/03/22 04:15:31;;;;;;;34.85;21.55;;;11.10;99.90;;;;;;4910636;29;20209;-79
2023/03/22 04:18:00;;;;;;;35.25;24.42;;;11.10;99.90;;;;;;4916696;29;20227;-80
2023/03/22 04:20:28;;;;;;;40.63;24.92;;;11.00;99.90;;;;;;4914726;29;20216;-82
2023/03/22 04:22:56;;;;;;;37.35;24.77;;;11.00;99.90;;;;;;4921123;29;20224;-80
2023/03/22 04:25:29;;;;;;;38.33;22.75;;;11.00;99.90;;;;;;4923418;29;20213;-81
2023/03/22 04:27:56;;;;;;;34.53;22.70;;;10.90;99.90;;;;;;4917209;29;20229;-80
2023/03/22 04:30:23;;;;;;;31.75;22.50;;;10.80;99.90;;;;;;4910440;29;20205;-80
2023/03/22 04:32:50;;;;;;;35.83;24.35;;;11.00;99.90;;;;;;4913749;29;20216;-81
2023/03/22 04:35:17;;;;;;;38.97;23.73;;;10.80;99.90;;;;;;4918693;29;20223;-80
2023/03/22 04:37:44;;;;;;;36.58;24.25;;;10.60;99.90;;;;;;4913562;29;20240;-80
2023/03/22 04:40:15;;;;;;;33.88;22.45;;;10.70;99.90;;;;;;4919987;29;20236;-80
2023/03/22 04:42:44;;;;;;;40.47;24.55;;;10.50;99.90;;;;;;4921554;29;20233;-81
2023/03/22 04:45:12;;;;;;;41.95;24.70;;;10.50;99.90;;;;;;4914076;29;20216;-80
2023/03/22 04:47:40;;;;;;;35.53;25.40;;;10.60;99.90;;;;;;4914245;29;20248;-80
2023/03/22 04:50:07;;;;;;;35.35;24.00;;;10.60;99.90;;;;;;4918919;29;20256;-79
2023/03/22 04:52:34;;;;;;;34.42;21.23;;;10.40;99.90;;;;;;4919016;29;20235;-79
2023/03/22 04:55:02;;;;;;;37.78;25.73;;;10.20;99.90;;;;;;4922266;29;20260;-80
2023/03/22 04:57:29;;;;;;;31.67;22.95;;;10.20;99.90;;;;;;4918140;29;20871;-81
2023/03/22 04:59:55;;;;;;;38.03;25.10;;;10.00;99.90;;;;;;4918363;29;20204;-81
2023/03/22 05:02:22;;;;;;;36.40;25.15;;;10.00;99.90;;;;;;4913339;29;20205;-79
2023/03/22 05:04:49;;;;;;;42.53;23.50;;;10.00;99.90;;;;;;4914427;29;20215;-79
2023/03/22 05:07:16;;;;;;;38.75;24.67;;;10.00;99.90;;;;;;4921258;29;20240;-80
2023/03/22 05:09:43;;;;;;;33.60;23.63;;;10.10;99.90;;;;;;4915998;29;20213;-79
2023/03/22 05:12:11;;;;;;;41.42;27.10;;;10.00;99.90;;;;;;4920154;29;20246;-81
2023/03/22 05:14:37;;;;;;;43.95;26.80;;;10.30;99.90;;;;;;4916361;29;20254;-80
2023/03/22 05:17:04;;;;;;;38.63;27.17;;;10.10;99.90;;;;;;4909354;29;20237;-82
2023/03/22 05:19:31;;;;;;;42.85;26.40;;;10.30;99.90;;;;;;4916317;29;20209;-77
2023/03/22 05:22:00;;;;;;;41.75;25.20;;;10.20;99.90;;;;;;4913878;29;20205;-79
2023/03/22 05:24:29;;;;;;;43.67;27.95;;;10.50;99.90;;;;;;4922185;29;20224;-78
2023/03/22 05:26:59;;;;;;;39.95;26.50;;;10.70;99.90;;;;;;4917464;29;20194;-80
2023/03/22 05:29:27;;;;;;;37.35;24.60;;;10.70;99.90;;;;;;4935290;29;20230;-80
2023/03/22 05:31:54;;;;;;;37.47;25.35;;;10.60;99.90;;;;;;4935894;29;20217;-80
2023/03/22 05:34:21;;;;;;;37.28;24.77;;;10.50;99.90;;;;;;4933381;29;20196;-82
2023/03/22 05:36:50;;;;;;;36.38;24.70;;;10.30;99.90;;;;;;4912906;29;20397;-79
2023/03/22 05:39:17;;;;;;;38.20;25.70;;;10.30;99.90;;;;;;4913034;29;20306;-78
2023/03/22 05:41:45;;;;;;;40.00;25.20;;;10.50;99.90;;;;;;4915892;29;20209;-80
2023/03/22 05:44:12;;;;;;;36.65;26.38;;;10.80;99.90;;;;;;4919948;29;20505;-80
2023/03/22 05:46:39;;;;;;;44.80;28.15;;;11.00;99.90;;;;;;4907682;29;20212;-80
2023/03/22 05:49:06;;;;;;;39.55;27.40;;;10.90;99.90;;;;;;4920575;29;20268;-80
2023/03/22 05:51:40;;;;;;;36.50;24.27;;;10.90;99.90;;;;;;4914249;29;20423;-81
2023/03/22 05:54:08;;;;;;;39.13;26.73;;;10.90;99.90;;;;;;4918797;29;20296;-80
2023/03/22 05:56:35;;;;;;;38.88;26.50;;;11.00;99.90;;;;;;4912818;29;20248;-80
2023/03/22 05:59:03;;;;;;;37.60;25.70;;;11.20;99.90;;;;;;4917330;29;20535;-80
2023/03/22 06:01:32;;;;;;;36.80;25.45;;;11.10;99.90;;;;;;4908946;29;20214;-78
2023/03/22 06:03:59;;;;;;;42.25;26.52;;;11.10;99.90;;;;;;4910879;29;20257;-80
2023/03/22 06:06:27;;;;;;;32.13;23.38;;;11.00;99.90;;;;;;4910313;29;20210;-81
2023/03/22 06:08:54;;;;;;;38.30;23.83;;;11.00;99.90;;;;;;4909902;29;20224;-80
2023/03/22 06:11:41;;;;;;;34.75;24.58;;;11.00;99.90;;;;;;4921034;29;20265;-80
2023/03/22 06:14:09;;;;;;;37.95;25.70;;;10.80;99.90;;;;;;4921620;29;20214;-78
2023/03/22 06:16:38;;;;;;;31.92;22.05;;;10.90;99.90;;;;;;4910998;29;20411;-79
2023/03/22 06:19:04;;;;;;;34.08;25.70;;;11.00;99.90;;;;;;4913280;29;20481;-80
2023/03/22 06:21:32;;;;;;;30.17;22.65;;;11.00;99.90;;;;;;4918384;29;20234;-81
2023/03/22 06:23:58;;;;;;;34.50;22.88;;;11.10;99.90;;;;;;4913031;29;20209;-81
2023/03/22 06:26:27;;;;;;;35.90;27.13;;;11.10;99.90;;;;;;4910377;29;20214;-81
2023/03/22 06:28:54;;;;;;;32.92;21.85;;;11.40;99.90;;;;;;4921674;29;20213;-82
2023/03/22 06:31:21;;;;;;;31.95;22.45;;;11.50;99.90;;;;;;4911532;29;20255;-80
2023/03/22 06:33:48;;;;;;;32.50;23.92;;;11.60;99.90;;;;;;4917430;29;20209;-79
2023/03/22 06:36:15;;;;;;;32.13;23.52;;;11.80;99.90;;;;;;4918603;29;20241;-78
2023/03/22 06:38:42;;;;;;;34.80;23.50;;;12.20;99.90;;;;;;4914200;29;20329;-80
2023/03/22 06:41:11;;;;;;;36.65;24.17;;;12.70;99.90;;;;;;4919492;29;20211;-82
2023/03/22 06:43:39;;;;;;;32.67;23.05;;;14.20;99.90;;;;;;4935552;29;20199;-81
2023/03/22 06:46:06;;;;;;;26.17;20.83;;;16.30;99.90;;;;;;4926406;29;20201;-80
2023/03/22 06:48:33;;;;;;;26.50;20.43;;;17.60;99.90;;;;;;4918618;29;20448;-80
2023/03/22 06:51:00;;;;;;;30.03;20.97;;;19.20;99.90;;;;;;4921058;29;20466;-78
2023/03/22 06:53:27;;;;;;;25.80;19.30;;;20.50;99.90;;;;;;4922742;29;20503;-81
2023/03/22 06:55:54;;;;;;;25.23;20.47;;;21.00;99.90;;;;;;4918952;29;20779;-81
2023/03/22 06:58:21;;;;;;;25.47;21.00;;;20.60;99.90;;;;;;4914495;29;20479;-80
2023/03/22 07:00:48;;;;;;;22.87;19.93;;;19.90;99.90;;;;;;4903840;29;20482;-79
2023/03/22 07:03:16;;;;;;;23.60;20.37;;;19.20;99.90;;;;;;4917255;29;20429;-79
2023/03/22 07:05:44;;;;;;;23.23;18.67;;;19.00;99.90;;;;;;4919742;29;20449;-80
2023/03/22 07:08:10;;;;;;;24.33;20.37;;;18.70;99.90;;;;;;4921198;29;20437;-80
2023/03/22 07:10:38;;;;;;;25.70;19.27;;;18.10;99.90;;;;;;4915446;29;20447;-79
2023/03/22 07:13:05;;;;;;;26.93;19.83;;;18.10;99.90;;;;;;4916269;29;20775;-79
2023/03/22 07:15:33;;;;;;;20.93;18.73;;;18.00;99.90;;;;;;4911049;29;20429;-81
2023/03/22 07:18:00;;;;;;;19.97;17.63;;;18.00;99.90;;;;;;4921623;29;20461;-78
2023/03/22 07:20:28;;;;;;;25.70;20.53;;;18.40;99.90;;;;;;4912900;29;20971;-79
2023/03/22 07:22:55;;;;;;;23.90;18.83;;;18.50;99.90;;;;;;4911495;29;20417;-80
2023/03/22 07:25:23;;;;;;;26.07;18.70;;;18.50;99.90;;;;;;4915961;29;20427;-79
2023/03/22 07:27:50;;;;;;;24.57;19.77;;;18.40;99.90;;;;;;4921935;29;20489;-80
2023/03/22 07:30:17;;;;;;;22.57;19.00;;;19.00;99.90;;;;;;4903242;29;20415;-79
2023/03/22 07:32:44;;;;;;;25.33;19.13;;;19.60;99.90;;;;;;4916745;29;20456;-80
2023/03/22 07:35:11;;;;;;;21.20;18.20;;;20.00;99.90;;;;;;4905669;29;20454;-79
2023/03/22 07:37:38;;;;;;;21.33;17.90;;;20.40;99.90;;;;;;4904566;29;20671;-80
2023/03/22 07:40:05;;;;;;;21.57;18.80;;;19.60;99.90;;;;;;4919593;29;20757;-79
2023/03/22 07:42:33;;;;;;;21.63;17.57;;;18.80;99.90;;;;;;4916553;29;20703;-79
2023/03/22 07:45:00;;;;;;;23.43;20.30;;;18.20;99.90;;;;;;4911757;29;20489;-79
2023/03/22 07:47:27;;;;;;;22.27;18.70;;;18.20;99.90;;;;;;4917178;29;20514;-79
2023/03/22 07:50:07;;;;;;;24.33;20.53;;;18.40;99.90;;;;;;4916170;29;20450;-79
2023/03/22 07:52:34;;;;;;;23.03;19.80;;;18.60;99.90;;;;;;4917010;29;20504;-78
2023/03/22 07:55:01;;;;;;;23.63;19.67;;;18.40;99.90;;;;;;4913730;29;20467;-81
2023/03/22 07:57:27;;;;;;;20.67;17.50;;;18.50;99.90;;;;;;4909379;29;20481;-79
2023/03/22 07:59:55;;;;;;;21.73;17.57;;;19.00;99.90;;;;;;4912936;29;20440;-78
2023/03/22 08:02:22;;;;;;;23.43;17.90;;;19.30;99.90;;;;;;4913110;29;20679;-80
2023/03/22 08:04:51;;;;;;;22.00;18.13;;;19.50;99.90;;;;;;4909616;29;20448;-80
2023/03/22 08:07:23;;;;;;;20.50;17.17;;;19.60;99.90;;;;;;4917725;29;20451;-80
2023/03/22 08:09:51;;;;;;;21.43;18.00;;;20.40;99.90;;;;;;4909362;29;20465;-80
2023/03/22 08:12:18;;;;;;;21.30;17.20;;;21.70;99.90;;;;;;4916742;29;20433;-79
2023/03/22 08:14:49;;;;;;;21.80;19.50;;;22.40;99.90;;;;;;4908687;29;20471;-80
2023/03/22 08:17:17;;;;;;;27.53;20.13;;;22.80;99.90;;;;;;4909471;29;20469;-78
2023/03/22 08:19:45;;;;;;;23.10;19.20;;;22.50;99.90;;;;;;4901608;29;20430;-80
2023/03/22 08:22:12;;;;;;;32.07;21.67;;;22.70;99.90;;;;;;4912687;29;20420;-80
2023/03/22 08:24:39;;;;;;;23.77;21.23;;;22.90;99.90;;;;;;4914746;29;20786;-78
2023/03/22 08:27:06;;;;;;;21.93;17.93;;;22.20;99.90;;;;;;4919493;29;20429;-78
2023/03/22 08:29:33;;;;;;;26.90;22.90;;;21.70;99.90;;;;;;4919524;29;20425;-79
2023/03/22 08:32:02;;;;;;;23.73;20.23;;;21.80;99.90;;;;;;4907270;29;20441;-78
2023/03/22 08:34:30;;;;;;;24.70;20.63;;;22.00;99.90;;;;;;4917660;29;20448;-79
2023/03/22 08:36:57;;;;;;;25.13;20.50;;;22.00;99.90;;;;;;4918359;29;20483;-78
2023/03/22 08:39:24;;;;;;;27.70;23.20;;;21.80;99.90;;;;;;4912221;29;20452;-80
2023/03/22 08:41:51;;;;;;;36.07;28.30;;;22.60;99.90;;;;;;4911250;29;20427;-78
2023/03/22 08:44:18;;;;;;;26.13;20.77;;;22.90;99.90;;;;;;4902773;29;20504;-79
2023/03/22 08:46:45;;;;;;;41.90;26.50;;;23.30;99.90;;;;;;4918066;29;20477;-78
2023/03/22 08:49:13;;;;;;;20.67;18.50;;;23.20;99.90;;;;;;4920226;29;20457;-79
2023/03/22 08:51:40;;;;;;;25.47;16.33;;;23.40;99.90;;;;;;4913317;29;20430;-80
2023/03/22 08:54:07;;;;;;;22.20;16.07;;;24.10;99.90;;;;;;4912817;29;20811;-79
2023/03/22 08:56:36;;;;;;;37.03;21.80;;;23.70;99.90;;;;;;4901930;29;20414;-78
2023/03/22 08:59:05;;;;;;;27.60;17.70;;;23.40;99.90;;;;;;4911784;29;20414;-78
2023/03/22 09:01:33;;;;;;;27.93;25.27;;;22.90;99.90;;;;;;4909401;29;20482;-78
2023/03/22 09:04:01;;;;;;;16.80;14.53;;;22.90;99.90;;;;;;4914670;29;20481;-78
2023/03/22 09:06:29;;;;;;;19.47;17.47;;;22.90;99.90;;;;;;4914315;29;20688;-78
2023/03/22 09:08:56;;;;;;;23.30;17.60;;;22.50;99.90;;;;;;4908275;29;20473;-79
2023/03/22 09:11:23;;;;;;;17.10;15.23;;;22.40;99.90;;;;;;4910076;29;20525;-80
2023/03/22 09:13:50;;;;;;;17.03;14.17;;;22.70;99.90;;;;;;4908169;29;20477;-79
2023/03/22 09:16:17;;;;;;;18.27;14.87;;;23.00;99.90;;;;;;4914186;29;20421;-79
2023/03/22 09:18:45;;;;;;;23.93;14.33;;;23.30;99.90;;;;;;4914561;29;20494;-78
2023/03/22 09:21:11;;;;;;;17.03;13.97;;;23.00;99.90;;;;;;4915474;29;20422;-77
2023/03/22 09:23:39;;;;;;;16.20;14.47;;;23.20;99.90;;;;;;4919087;29;20444;-78
2023/03/22 09:26:08;;;;;;;18.43;13.93;;;22.50;99.90;;;;;;4919745;29;20426;-78
2023/03/22 09:28:35;;;;;;;15.07;13.67;;;22.20;99.90;;;;;;4919917;29;20450;-77
2023/03/22 09:31:09;;;;;;;17.20;13.50;;;20.90;99.90;;;;;;4912742;29;20515;-79
2023/03/22 09:33:40;;;;;;;17.50;12.90;;;20.50;99.90;;;;;;4916471;29;20467;-79
2023/03/22 09:36:08;;;;;;;13.67;12.37;;;20.90;99.90;;;;;;4922332;29;20421;-76
2023/03/22 09:38:37;;;;;;;12.63;11.13;;;20.80;99.90;;;;;;4911190;29;20481;-79
2023/03/22 09:41:26;;;;;;;16.30;12.67;;;20.30;99.90;;;;;;4916376;29;20417;-79
2023/03/22 09:43:58;;;;;;;15.27;13.10;;;20.10;99.90;;;;;;4919402;29;20437;-78
2023/03/22 09:46:41;;;;;;;12.27;10.63;;;20.00;99.90;;;;;;4922155;29;20420;-79
2023/03/22 09:49:38;;;;;;;11.03;9.73;;;20.40;99.90;;;;;;4911135;29;20451;-80
2023/03/22 09:52:19;;;;;;;14.70;8.93;;;20.20;99.90;;;;;;4919507;29;20449;-77
2023/03/22 09:54:46;;;;;;;12.60;8.40;;;20.20;99.90;;;;;;4911640;29;20683;-77
2023/03/22 09:57:25;;;;;;;7.97;7.23;;;20.20;99.90;;;;;;4918008;29;20475;-76
2023/03/22 09:59:52;;;;;;;7.70;6.80;;;20.40;99.90;;;;;;4915732;29;20531;-79
2023/03/22 10:02:38;;;;;;;11.20;8.20;;;20.20;99.90;;;;;;4912106;29;20423;-80
2023/03/22 10:05:35;;;;;;;14.57;11.60;;;20.20;99.90;;;;;;4929298;29;20462;-79
2023/03/22 10:08:14;;;;;;;23.93;14.00;;;20.30;99.90;;;;;;4935708;29;20428;-80
2023/03/22 10:10:42;;;;;;;13.03;11.33;;;20.20;99.90;;;;;;4928751;29;20419;-79
2023/03/22 10:13:38;;;;;;;17.33;11.67;;;20.30;99.90;;;;;;4934927;29;20460;-79
2023/03/22 10:16:11;;;;;;;11.93;10.57;;;20.40;99.90;;;;;;4910730;29;20423;-78
2023/03/22 10:18:46;;;;;;;12.90;10.37;;;20.40;99.90;;;;;;4916751;29;20582;-79
2023/03/22 10:21:16;;;;;;;15.40;10.03;;;20.30;99.90;;;;;;4922285;29;20446;-77
2023/03/22 10:24:17;;;;;;;11.93;9.63;;;19.90;99.90;;;;;;4917643;29;20440;-78
2023/03/22 10:26:48;;;;;;;13.20;10.63;;;19.80;99.90;;;;;;4919780;29;20416;-77
2023/03/22 10:29:18;;;;;;;16.57;13.00;;;19.90;99.90;;;;;;4921770;29;20837;-77
2023/03/22 10:31:45;;;;;;;13.03;9.20;;;19.70;99.90;;;;;;4917836;29;20632;-80
2023/03/22 10:34:20;;;;;;;11.40;9.17;;;19.70;99.90;;;;;;4915448;29;20412;-79
2023/03/22 10:36:50;;;;;;;16.63;11.17;;;20.10;99.90;;;;;;4918074;29;20669;-79
2023/03/22 10:39:28;;;;;;;9.97;8.87;;;20.20;99.90;;;;;;4918566;29;20462;-78
2023/03/22 10:41:59;;;;;;;10.30;8.83;;;20.40;99.90;;;;;;4916094;29;20427;-77
2023/03/22 10:44:28;;;;;;;11.83;9.27;;;20.30;99.90;;;;;;4921262;29;20457;-78
2023/03/22 10:47:05;;;;;;;10.57;9.57;;;20.40;99.90;;;;;;4917429;29;20426;-77
2023/03/22 10:49:38;;;;;;;12.93;9.50;;;20.40;99.90;;;;;;4913848;29;20453;-78
2023/03/22 10:52:20;;;;;;;11.77;9.97;;;20.40;99.90;;;;;;4914161;29;20432;-77
2023/03/22 10:54:47;;;;;;;12.47;11.17;;;20.20;99.90;;;;;;4921317;29;20770;-76
2023/03/22 10:57:14;;;;;;;18.70;13.43;;;20.20;99.90;;;;;;4910949;29;20427;-77
2023/03/22 10:59:47;;;;;;;16.97;11.17;;;20.10;99.90;;;;;;4915723;29;20497;-78
2023/03/22 11:02:21;;;;;;;13.17;11.73;;;20.10;99.90;;;;;;4920413;29;20428;-77
2023/03/22 11:04:51;;;;;;;15.10;10.23;;;20.00;99.90;;;;;;4903996;29;20448;-80
2023/03/22 11:07:33;;;;;;;13.63;10.50;;;19.80;99.90;;;;;;4915206;29;20433;-78
2023/03/22 11:10:12;;;;;;;13.50;10.50;;;19.80;99.90;;;;;;4914222;29;20640;-77
2023/03/22 11:12:44;;;;;;;11.90;10.70;;;20.00;99.90;;;;;;4916168;29;20419;-78
2023/03/22 11:15:39;;;;;;;14.13;11.63;;;20.00;99.90;;;;;;4920956;29;20423;-78
2023/03/22 11:18:11;;;;;;;14.90;12.57;;;20.00;99.90;;;;;;4913365;29;20539;-78
2023/03/22 11:20:41;;;;;;;20.40;14.03;;;20.20;99.90;;;;;;4915048;29;20842;-78
2023/03/22 11:23:16;;;;;;;12.90;11.50;;;20.50;99.90;;;;;;4914442;29;20495;-78
2023/03/22 11:25:47;;;;;;;14.60;13.10;;;20.60;99.90;;;;;;4920088;29;20424;-79
2023/03/22 11:28:27;;;;;;;14.20;11.60;;;20.70;99.90;;;;;;4910452;29;20487;-78
2023/03/22 11:31:09;;;;;;;14.60;10.80;;;20.50;99.90;;;;;;4912274;29;20483;-79
2023/03/22 11:33:43;;;;;;;16.10;12.37;;;20.70;99.90;;;;;;4908374;29;20423;-79
2023/03/22 11:36:17;;;;;;;21.27;15.13;;;20.70;99.90;;;;;;4911959;29;20428;-79
2023/03/22 11:38:44;;;;;;;22.53;14.10;;;20.60;99.90;;;;;;4911492;29;20461;-78
2023/03/22 11:41:24;;;;;;;16.33;12.37;;;20.60;99.90;;;;;;4913705;29;20483;-76
2023/03/22 11:44:01;;;;;;;21.87;14.20;;;21.00;99.90;;;;;;4915137;29;20450;-78
2023/03/22 11:46:29;;;;;;;18.13;11.70;;;20.80;99.90;;;;;;4916041;29;20821;-78
2023/03/22 11:49:00;;;;;;;16.83;11.83;;;20.80;99.90;;;;;;4908544;29;20488;-78
2023/03/22 11:51:42;;;;;;;15.00;10.63;;;20.70;99.90;;;;;;4915219;29;20451;-78
2023/03/22 11:54:33;;;;;;;13.57;10.80;;;20.70;99.90;;;;;;4915058;29;20514;-78
2023/03/22 11:57:03;;;;;;;12.37;11.07;;;20.50;99.90;;;;;;4910629;29;20449;-79
2023/03/22 11:59:43;;;;;;;24.27;11.90;;;20.80;99.90;;;;;;4917776;29;20477;-77
2023/03/22 12:02:25;;;;;;;11.87;9.90;;;20.90;99.90;;;;;;4911826;29;20824;-78
2023/03/22 12:05:01;;;;;;;20.83;11.27;;;21.20;99.90;;;;;;4919545;29;20420;-78
2023/03/22 12:07:30;;;;;;;10.03;9.03;;;21.50;99.90;;;;;;4919411;29;20450;-79
2023/03/22 12:10:06;;;;;;;10.57;9.00;;;21.40;99.90;;;;;;4912614;29;20494;-77
2023/03/22 12:12:43;;;;;;;12.03;9.40;;;21.40;99.90;;;;;;4917341;29;20417;-77
2023/03/22 12:15:21;;;;;;;10.93;8.33;;;21.30;99.90;;;;;;4910932;29;20446;-79
2023/03/22 12:18:13;;;;;;;9.07;7.83;;;21.10;99.90;;;;;;4916433;29;20457;-78
2023/03/22 12:20:57;;;;;;;10.00;7.83;;;21.20;99.90;;;;;;4914530;29;20406;-77
2023/03/22 12:23:28;;;;;;;10.50;9.40;;;21.10;99.90;;;;;;4910661;29;20962;-77
2023/03/22 12:26:01;;;;;;;12.23;9.80;;;21.20;99.90;;;;;;4899718;29;20500;-77
2023/03/22 12:28:39;;;;;;;9.83;8.87;;;21.40;99.90;;;;;;4918269;29;20430;-78
2023/03/22 12:31:18;;;;;;;11.70;9.43;;;21.30;99.90;;;;;;4913915;29;20419;-78
2023/03/22 12:33:56;;;;;;;9.33;8.40;;;21.30;99.90;;;;;;4912563;29;20444;-78
2023/03/22 12:36:40;;;;;;;11.07;8.70;;;21.50;99.90;;;;;;4912644;29;20419;-79
2023/03/22 12:39:18;;;;;;;11.57;9.73;;;21.40;99.90;;;;;;4908774;29;20471;-79
2023/03/22 12:41:49;;;;;;;10.30;8.40;;;21.20;99.90;;;;;;4909243;29;20425;-80
2023/03/22 12:44:24;;;;;;;11.37;9.10;;;20.80;99.90;;;;;;4912872;29;20506;-78
2023/03/22 12:47:04;;;;;;;8.30;6.93;;;20.90;99.90;;;;;;4913551;29;20422;-77
2023/03/22 12:49:40;;;;;;;8.30;6.67;;;20.70;99.90;;;;;;4918605;29;20416;-78
2023/03/22 12:52:44;;;;;;;6.93;5.83;;;21.00;99.90;;;;;;4915401;29;20457;-79
2023/03/22 12:55:23;;;;;;;7.67;6.93;;;21.00;99.90;;;;;;4907783;29;20487;-77